Time;durP1;ratioP1;P1;durP2;ratioP2;P2;SDS_P1;SDS_P2;PMS_P1;PMS_P2;Temp;Humidity;BMP_temperature;BMP_pressure;BME280_temperature;BME280_humidity;BME280_pressure;Samples;Min_cycle;Max_cycle;Signal;HPM_P1;HPM_P2
2022/05/10 00:01:29;;;;;;;;;;;;;;;;;;5066600;28;19934;-61
2022/05/10 00:03:56;;;;;;;;;;;;;;;;;;5083823;28;19904;-60
2022/05/10 00:06:22;;;;;;;;;;;;;;;;;;5087287;28;19904;-60
2022/05/10 00:08:49;;;;;;;;;;;;;;;;;;5087309;28;19908;-61
2022/05/10 00:11:16;;;;;;;;;;;;;;;;;;5087372;28;20390;-61
2022/05/10 00:13:42;;;;;;;;;;;;;;;;;;5086573;28;19991;-60
2022/05/10 00:16:08;;;;;;;;;;;;;;;;;;5086691;28;20644;-60
2022/05/10 00:18:33;;;;;;;;;;;;;;;;;;5086224;28;19905;-61
2022/05/10 00:20:59;;;;;;;;;;;;;;;;;;5086626;28;19953;-60
2022/05/10 00:23:25;;;;;;;;;;;;;;;;;;5086618;28;20000;-61
2022/05/10 00:25:51;;;;;;;;;;;;;;;;;;5086637;28;19939;-61
2022/05/10 00:28:17;;;;;;;;;;;;;;;;;;5087202;28;19911;-61
2022/05/10 00:30:43;;;;;;;;;;;;;;;;;;5086153;28;19986;-61
2022/05/10 00:33:10;;;;;;;;;;;;;;;;;;5086017;28;20056;-61
2022/05/10 00:35:36;;;;;;;;;;;;;;;;;;5086049;28;19908;-60
2022/05/10 00:38:02;;;;;;;;;;;;;;;;;;5086590;28;19904;-60
2022/05/10 00:40:28;;;;;;;;;;;;;;;;;;5086202;28;19908;-60
2022/05/10 00:42:54;;;;;;;;;;;;;;;;;;5086262;28;19908;-60
2022/05/10 00:45:19;;;;;;;;;;;;;;;;;;5085868;28;19943;-60
2022/05/10 00:47:46;;;;;;;;;;;;;;;;;;5086804;28;19908;-61
2022/05/10 00:50:12;;;;;;;;;;;;;;;;;;5086183;28;20413;-60
2022/05/10 00:52:38;;;;;;;;;;;;;;;;;;5086212;28;20011;-60
2022/05/10 00:55:05;;;;;;;;;;;;;;;;;;5085973;28;19918;-60
2022/05/10 00:57:32;;;;;;;;;;;;;;;;;;5085811;28;20006;-60
2022/05/10 00:59:59;;;;;;;;;;;;;;;;;;5086288;28;19987;-60
2022/05/10 01:02:26;;;;;;;;;;;;;;;;;;5085745;28;19931;-61
2022/05/10 01:04:52;;;;;;;;;;;;;;;;;;5085891;28;19904;-60
2022/05/10 01:07:18;;;;;;;;;;;;;;;;;;5086484;28;19908;-60
2022/05/10 01:09:44;;;;;;;;;;;;;;;;;;5084932;28;19953;-60
2022/05/10 01:12:11;;;;;;;;;;;;;;;;;;5085417;28;20302;-60
2022/05/10 01:14:37;;;;;;;;;;;;;;;;;;5085430;28;19910;-60
2022/05/10 01:17:03;;;;;;;;;;;;;;;;;;5085523;28;20384;-60
2022/05/10 01:19:29;;;;;;;;;;;;;;;;;;5085997;28;19908;-61
2022/05/10 01:21:56;;;;;;;;;;;;;;;;;;5085615;28;19908;-60
2022/05/10 01:24:22;;;;;;;;;;;;;;;;;;5085709;28;19911;-60
2022/05/10 01:26:48;;;;;;;;;;;;;;;;;;5085838;28;19908;-60
2022/05/10 01:29:14;;;;;;;;;;;;;;;;;;5086253;28;20330;-61
2022/05/10 01:31:40;;;;;;;;;;;;;;;;;;5085271;28;19904;-60
2022/05/10 01:34:06;;;;;;;;;;;;;;;;;;5085567;28;19919;-60
2022/05/10 01:36:33;;;;;;;;;;;;;;;;;;5085491;28;19908;-60
2022/05/10 01:38:59;;;;;;;;;;;;;;;;;;5085727;28;19930;-60
2022/05/10 01:41:26;;;;;;;;;;;;;;;;;;5085219;28;19908;-60
2022/05/10 01:43:52;;;;;;;;;;;;;;;;;;5085555;28;19904;-60
2022/05/10 01:46:18;;;;;;;;;;;;;;;;;;5085861;28;19910;-61
2022/05/10 01:48:45;;;;;;;;;;;;;;;;;;5085988;28;19904;-61
2022/05/10 01:51:12;;;;;;;;;;;;;;;;;;5085229;28;19904;-60
2022/05/10 01:53:38;;;;;;;;;;;;;;;;;;5084991;28;20035;-60
2022/05/10 01:56:04;;;;;;;;;;;;;;;;;;5085140;28;19994;-60
2022/05/10 01:58:31;;;;;;;;;;;;;;;;;;5084575;28;20359;-60
2022/05/10 02:00:57;;;;;;;;;;;;;;;;;;5084929;28;19957;-60
2022/05/10 02:03:23;;;;;;;;;;;;;;;;;;5085353;28;20494;-60
2022/05/10 02:05:50;;;;;;;;;;;;;;;;;;5085056;28;20364;-60
2022/05/10 02:08:16;;;;;;;;;;;;;;;;;;5085729;28;19958;-60
2022/05/10 02:10:42;;;;;;;;;;;;;;;;;;5084521;28;19900;-60
2022/05/10 02:13:08;;;;;;;;;;;;;;;;;;5085415;28;19915;-60
2022/05/10 02:15:35;;;;;;;;;;;;;;;;;;5084372;28;19912;-60
2022/05/10 02:18:01;;;;;;;;;;;;;;;;;;5085033;28;19911;-60
2022/05/10 02:20:30;;;;;;;;;;;;;;;;;;5084746;28;19904;-60
2022/05/10 02:22:56;;;;;;;;;;;;;;;;;;5085067;28;19911;-60
2022/05/10 02:25:24;;;;;;;;;;;;;;;;;;5084556;28;19904;-60
2022/05/10 02:27:49;;;;;;;;;;;;;;;;;;5084907;28;19915;-60
2022/05/10 02:30:15;;;;;;;;;;;;;;;;;;5085503;28;19908;-60
2022/05/10 02:35:26;;;;;;;;;;;;;;;;;;5084651;28;19926;-60
2022/05/10 02:37:52;;;;;;;;;;;;;;;;;;5084819;28;20445;-60
2022/05/10 02:40:18;;;;;;;;;;;;;;;;;;5084674;28;20405;-60
2022/05/10 02:42:47;;;;;;;;;;;;;;;;;;5085370;28;19908;-60
2022/05/10 02:45:18;;;;;;;;;;;;;;;;;;5085307;28;19908;-60
2022/05/10 02:47:43;;;;;;;;;;;;;;;;;;5085200;28;19964;-61
2022/05/10 02:50:09;;;;;;;;;;;;;;;;;;5084877;28;19908;-60
2022/05/10 02:52:35;;;;;;;;;;;;;;;;;;5084257;28;19930;-60
2022/05/10 02:55:02;;;;;;;;;;;;;;;;;;5088011;28;19911;-60
2022/05/10 02:57:28;;;;;;;;;;;;;;;;;;5088208;28;20278;-60
2022/05/10 02:59:55;;;;;;;;;;;;;;;;;;5088203;28;19907;-60
2022/05/10 03:02:22;;;;;;;;;;;;;;;;;;5088016;28;20025;-61
2022/05/10 03:04:49;;;;;;;;;;;;;;;;;;5088474;28;20287;-60
2022/05/10 03:07:15;;;;;;;;;;;;;;;;;;5088512;28;19912;-60
2022/05/10 03:09:41;;;;;;;;;;;;;;;;;;5087793;28;20013;-60
2022/05/10 03:12:06;;;;;;;;;;;;;;;;;;5087908;28;19904;-61
2022/05/10 03:14:32;;;;;;;;;;;;;;;;;;5087604;28;19957;-61
2022/05/10 03:16:58;;;;;;;;;;;;;;;;;;5087748;28;20010;-61
2022/05/10 03:19:24;;;;;;;;;;;;;;;;;;5088023;28;19915;-61
2022/05/10 03:21:51;;;;;;;;;;;;;;;;;;5087314;28;19904;-61
2022/05/10 03:24:17;;;;;;;;;;;;;;;;;;5088424;28;20401;-61
2022/05/10 03:26:43;;;;;;;;;;;;;;;;;;5087938;28;19936;-61
2022/05/10 03:29:10;;;;;;;;;;;;;;;;;;5087845;28;19911;-61
2022/05/10 03:31:36;;;;;;;;;;;;;;;;;;5087210;28;19957;-61
2022/05/10 03:36:46;;;;;;;;;;;;;;;;;;5087894;28;19919;-61
2022/05/10 03:39:12;;;;;;;;;;;;;;;;;;5087653;28;19908;-61
2022/05/10 03:41:38;;;;;;;;;;;;;;;;;;5087542;28;19907;-60
2022/05/10 03:44:04;;;;;;;;;;;;;;;;;;5087516;28;20286;-60
2022/05/10 03:46:31;;;;;;;;;;;;;;;;;;5086949;28;19961;-60
2022/05/10 03:48:57;;;;;;;;;;;;;;;;;;5087314;28;19904;-61
2022/05/10 03:51:23;;;;;;;;;;;;;;;;;;5087067;28;19904;-61
2022/05/10 03:53:49;;;;;;;;;;;;;;;;;;5086951;28;19912;-61
2022/05/10 03:56:14;;;;;;;;;;;;;;;;;;5087686;28;19951;-61
2022/05/10 03:58:40;;;;;;;;;;;;;;;;;;5086962;28;19904;-61
2022/05/10 04:01:07;;;;;;;;;;;;;;;;;;5086625;28;20007;-61
2022/05/10 04:03:33;;;;;;;;;;;;;;;;;;5086997;28;19999;-60
2022/05/10 04:05:59;;;;;;;;;;;;;;;;;;5085885;28;19994;-61
2022/05/10 04:08:25;;;;;;;;;;;;;;;;;;5087014;28;19934;-60
2022/05/10 04:10:51;;;;;;;;;;;;;;;;;;5086671;28;19904;-61
2022/05/10 04:13:17;;;;;;;;;;;;;;;;;;5087332;28;20301;-61
2022/05/10 04:15:43;;;;;;;;;;;;;;;;;;5086708;28;19943;-61
2022/05/10 04:18:08;;;;;;;;;;;;;;;;;;5069098;28;19908;-60
2022/05/10 04:20:34;;;;;;;;;;;;;;;;;;5067636;28;19915;-61
2022/05/10 04:23:00;;;;;;;;;;;;;;;;;;5066517;28;19934;-61
2022/05/10 04:25:26;;;;;;;;;;;;;;;;;;5068199;28;19908;-60
2022/05/10 04:27:52;;;;;;;;;;;;;;;;;;5067841;28;20007;-60
2022/05/10 04:30:18;;;;;;;;;;;;;;;;;;5067539;28;19908;-61
2022/05/10 04:32:45;;;;;;;;;;;;;;;;;;5071794;28;19912;-61
2022/05/10 04:35:11;;;;;;;;;;;;;;;;;;5067451;28;19905;-61
2022/05/10 04:37:37;;;;;;;;;;;;;;;;;;5067519;28;19932;-60
2022/05/10 04:42:48;;;;;;;;;;;;;;;;;;5047305;28;19920;-61
2022/05/10 04:45:14;;;;;;;;;;;;;;;;;;5047391;28;19905;-60
2022/05/10 04:47:40;;;;;;;;;;;;;;;;;;5049102;28;19913;-61
2022/05/10 04:50:06;;;;;;;;;;;;;;;;;;5066874;28;19912;-61
2022/05/10 04:52:32;;;;;;;;;;;;;;;;;;5066945;28;20385;-60
2022/05/10 04:54:57;;;;;;;;;;;;;;;;;;5067899;28;19916;-60
2022/05/10 04:57:23;;;;;;;;;;;;;;;;;;5067659;28;19954;-60
2022/05/10 04:59:49;;;;;;;;;;;;;;;;;;5066832;28;20112;-60
2022/05/10 05:02:15;;;;;;;;;;;;;;;;;;5067060;28;19908;-60
2022/05/10 05:04:41;;;;;;;;;;;;;;;;;;5066406;28;19915;-60
2022/05/10 05:07:09;;;;;;;;;;;;;;;;;;5067332;28;19904;-60
2022/05/10 05:09:34;;;;;;;;;;;;;;;;;;5066795;28;20753;-60
2022/05/10 05:12:00;;;;;;;;;;;;;;;;;;5065796;28;19916;-61
2022/05/10 05:14:26;;;;;;;;;;;;;;;;;;5065525;28;20000;-61
2022/05/10 05:16:54;;;;;;;;;;;;;;;;;;5065179;28;19908;-61
2022/05/10 05:19:21;;;;;;;;;;;;;;;;;;5061587;28;19956;-61
2022/05/10 05:21:48;;;;;;;;;;;;;;;;;;5045448;28;19904;-61
2022/05/10 05:24:15;;;;;;;;;;;;;;;;;;5045493;28;19915;-60
2022/05/10 05:26:42;;;;;;;;;;;;;;;;;;5045339;28;20421;-60
2022/05/10 05:29:08;;;;;;;;;;;;;;;;;;5061673;28;20002;-61
2022/05/10 05:31:34;;;;;;;;;;;;;;;;;;5064890;28;20399;-60
2022/05/10 05:34:01;;;;;;;;;;;;;;;;;;5065404;28;19908;-60
2022/05/10 05:36:27;;;;;;;;;;;;;;;;;;5065486;28;19982;-60
2022/05/10 05:38:53;;;;;;;;;;;;;;;;;;5067516;28;19943;-60
2022/05/10 05:41:18;;;;;;;;;;;;;;;;;;5063941;28;19909;-60
2022/05/10 05:43:45;;;;;;;;;;;;;;;;;;5064297;28;20389;-61
2022/05/10 05:46:11;;;;;;;;;;;;;;;;;;5051984;28;19965;-60
2022/05/10 05:48:37;;;;;;;;;;;;;;;;;;5065046;28;20452;-61
2022/05/10 05:51:03;;;;;;;;;;;;;;;;;;5065083;28;19908;-61
2022/05/10 05:53:29;;;;;;;;;;;;;;;;;;5065347;28;19962;-60
2022/05/10 05:55:55;;;;;;;;;;;;;;;;;;5061785;28;20402;-60
2022/05/10 05:58:22;;;;;;;;;;;;;;;;;;5065435;28;19908;-60
2022/05/10 06:00:49;;;;;;;;;;;;;;;;;;5064287;28;19908;-60
2022/05/10 06:03:14;;;;;;;;;;;;;;;;;;5066102;28;19908;-60
2022/05/10 06:05:40;;;;;;;;;;;;;;;;;;5065479;28;20421;-60
2022/05/10 06:08:08;;;;;;;;;;;;;;;;;;5054086;28;19908;-61
2022/05/10 06:10:34;;;;;;;;;;;;;;;;;;5045752;28;19939;-60
2022/05/10 06:13:03;;;;;;;;;;;;;;;;;;5063450;28;19951;-60
2022/05/10 06:15:29;;;;;;;;;;;;;;;;;;5062224;28;21069;-60
2022/05/10 06:17:56;;;;;;;;;;;;;;;;;;5061589;28;19912;-60
2022/05/10 06:20:22;;;;;;;;;;;;;;;;;;5065217;28;20284;-60
2022/05/10 06:22:48;;;;;;;;;;;;;;;;;;5065267;28;19905;-60
2022/05/10 06:25:17;;;;;;;;;;;;;;;;;;5065451;28;20397;-60
2022/05/10 06:27:43;;;;;;;;;;;;;;;;;;5066425;28;20387;-60
2022/05/10 06:30:09;;;;;;;;;;;;;;;;;;5070383;28;19991;-61
2022/05/10 06:32:35;;;;;;;;;;;;;;;;;;5070551;28;19951;-60
2022/05/10 06:35:01;;;;;;;;;;;;;;;;;;5068856;28;19971;-60
2022/05/10 06:40:11;;;;;;;;;;;;;;;;;;5070689;28;19914;-60
2022/05/10 06:42:37;;;;;;;;;;;;;;;;;;5071013;28;19908;-60
2022/05/10 06:45:03;;;;;;;;;;;;;;;;;;5068812;28;19947;-60
2022/05/10 06:47:29;;;;;;;;;;;;;;;;;;5069248;28;19970;-60
2022/05/10 06:49:55;;;;;;;;;;;;;;;;;;5069350;28;19908;-60
2022/05/10 06:52:21;;;;;;;;;;;;;;;;;;5070142;28;19913;-61
2022/05/10 06:54:47;;;;;;;;;;;;;;;;;;5068506;28;19939;-60
2022/05/10 06:57:13;;;;;;;;;;;;;;;;;;5070529;28;19908;-60
2022/05/10 06:59:39;;;;;;;;;;;;;;;;;;5070192;28;19951;-60
2022/05/10 07:02:05;;;;;;;;;;;;;;;;;;5070314;28;20031;-60
2022/05/10 07:04:31;;;;;;;;;;;;;;;;;;5070902;28;19907;-60
2022/05/10 07:06:57;;;;;;;;;;;;;;;;;;5067978;28;19912;-60
2022/05/10 07:09:22;;;;;;;;;;;;;;;;;;5073262;28;19938;-60
2022/05/10 07:11:48;;;;;;;;;;;;;;;;;;5077135;28;20010;-60
2022/05/10 07:14:14;;;;;;;;;;;;;;;;;;5067351;28;19908;-62
2022/05/10 07:16:40;;;;;;;;;;;;;;;;;;5069927;28;19919;-60
2022/05/10 07:19:06;;;;;;;;;;;;;;;;;;5070211;28;20003;-60
2022/05/10 07:21:33;;;;;;;;;;;;;;;;;;5069654;28;19905;-60
2022/05/10 07:24:01;;;;;;;;;;;;;;;;;;5069263;28;20314;-60
2022/05/10 07:26:28;;;;;;;;;;;;;;;;;;5067693;28;19908;-60
2022/05/10 07:28:53;;;;;;;;;;;;;;;;;;5066535;28;19983;-60
2022/05/10 07:31:19;;;;;;;;;;;;;;;;;;5068962;28;19912;-60
2022/05/10 07:33:45;;;;;;;;;;;;;;;;;;5068244;28;20469;-60
2022/05/10 07:36:33;;;;;;;;;;;;;;;;;;5067263;28;19964;-60
2022/05/10 07:38:59;;;;;;;;;;;;;;;;;;5067070;28;19905;-60
2022/05/10 07:41:25;;;;;;;;;;;;;;;;;;5067136;28;19913;-60
2022/05/10 07:43:51;;;;;;;;;;;;;;;;;;5067062;28;19958;-60
2022/05/10 07:46:17;;;;;;;;;;;;;;;;;;5067089;28;19985;-60
2022/05/10 07:48:43;;;;;;;;;;;;;;;;;;5066647;28;20249;-60
2022/05/10 07:51:09;;;;;;;;;;;;;;;;;;5067595;28;20387;-60
2022/05/10 07:53:35;;;;;;;;;;;;;;;;;;5066836;28;19920;-60
2022/05/10 07:56:01;;;;;;;;;;;;;;;;;;5067025;28;20405;-60
2022/05/10 07:58:28;;;;;;;;;;;;;;;;;;5066148;28;19908;-60
2022/05/10 08:00:55;;;;;;;;;;;;;;;;;;5066737;28;19912;-60
2022/05/10 08:03:21;;;;;;;;;;;;;;;;;;5067013;28;20295;-60
2022/05/10 08:05:47;;;;;;;;;;;;;;;;;;5066716;28;19908;-60
2022/05/10 08:08:14;;;;;;;;;;;;;;;;;;5066853;28;19936;-60
2022/05/10 08:10:41;;;;;;;;;;;;;;;;;;5066702;28;19912;-60
2022/05/10 08:13:08;;;;;;;;;;;;;;;;;;5066127;28;19912;-60
2022/05/10 08:15:34;;;;;;;;;;;;;;;;;;5087038;28;20318;-60
2022/05/10 08:18:00;;;;;;;;;;;;;;;;;;5084588;28;19995;-60
2022/05/10 08:20:27;;;;;;;;;;;;;;;;;;5066394;28;20007;-60
2022/05/10 08:22:54;;;;;;;;;;;;;;;;;;5067028;28;19908;-60
2022/05/10 08:25:20;;;;;;;;;;;;;;;;;;5066748;28;19958;-60
2022/05/10 08:27:47;;;;;;;;;;;;;;;;;;5065774;28;19915;-60
2022/05/10 08:30:15;;;;;;;;;;;;;;;;;;5066552;28;19904;-60
2022/05/10 08:32:41;;;;;;;;;;;;;;;;;;5065236;28;19916;-60
2022/05/10 08:35:07;;;;;;;;;;;;;;;;;;5067546;28;19918;-60
2022/05/10 08:37:36;;;;;;;;;;;;;;;;;;5067269;28;20370;-60
2022/05/10 08:40:02;;;;;;;;;;;;;;;;;;5065876;28;19990;-60
2022/05/10 08:42:28;;;;;;;;;;;;;;;;;;5065681;28;19943;-60
2022/05/10 08:44:54;;;;;;;;;;;;;;;;;;5068136;28;19908;-60
2022/05/10 08:47:20;;;;;;;;;;;;;;;;;;5066644;28;20003;-60
2022/05/10 08:49:46;;;;;;;;;;;;;;;;;;5063289;28;19918;-60
2022/05/10 08:52:12;;;;;;;;;;;;;;;;;;5063691;28;19916;-60
2022/05/10 08:54:39;;;;;;;;;;;;;;;;;;5066592;28;19916;-60
2022/05/10 08:57:05;;;;;;;;;;;;;;;;;;5066444;28;19912;-60
2022/05/10 08:59:32;;;;;;;;;;;;;;;;;;5066254;28;19950;-60
2022/05/10 09:01:58;;;;;;;;;;;;;;;;;;5066433;28;19912;-60
2022/05/10 09:04:24;;;;;;;;;;;;;;;;;;5067181;28;19935;-60
2022/05/10 09:06:49;;;;;;;;;;;;;;;;;;5066491;28;19909;-60
2022/05/10 09:09:16;;;;;;;;;;;;;;;;;;5066563;28;19919;-60
2022/05/10 09:11:43;;;;;;;;;;;;;;;;;;5066215;28;19909;-60
2022/05/10 09:14:09;;;;;;;;;;;;;;;;;;5066468;28;19904;-60
2022/05/10 09:16:36;;;;;;;1.05;0.90;;;;;;;;;;5065205;28;20432;-59
2022/05/10 09:19:03;;;;;;;0.70;0.70;;;;;;;;;;5066259;28;20029;-59
2022/05/10 09:21:43;;;;;;;0.80;0.80;;;;;;;;;;5066119;28;20028;-59
2022/05/10 09:24:14;;;;;;;1.05;1.00;;;;;;;;;;5066038;28;20016;-59
2022/05/10 09:26:41;;;;;;;0.95;0.93;;;;;;;;;;5065153;28;20024;-59
2022/05/10 09:29:22;;;;;;;1.00;1.00;;;;;;;;;;5066209;28;20029;-60
2022/05/10 09:34:46;;;;;;;1.25;1.15;;;;;;;;;;5065939;28;20040;-59
2022/05/10 09:37:30;;;;;;;1.00;1.00;;;;;;;;;;5065916;28;20036;-59
2022/05/10 09:39:56;;;;;;;1.10;1.00;;;;;;;;;;5065660;28;20021;-59
2022/05/10 09:42:31;;;;;;;1.15;1.02;;;;;;;;;;5065987;28;20043;-59
2022/05/10 09:45:07;;;;;;;0.90;0.90;;;;;;;;;;5065921;28;20374;-59
2022/05/10 09:47:34;;;;;;;0.98;0.98;;;;;;;;;;5065795;28;20082;-59
2022/05/10 09:50:14;;;;;;;1.20;1.13;;;;;;;;;;5065983;28;20418;-59
2022/05/10 09:52:40;;;;;;;0.90;0.90;;;;;;;;;;5063925;28;20101;-59
2022/05/10 09:55:09;;;;;;;0.85;0.85;;;;;;;;;;5065090;28;20041;-59
2022/05/10 09:57:38;;;;;;;0.90;0.90;;;;;;;;;;5065043;28;20248;-59
2022/05/10 10:00:08;;;;;;;0.60;0.60;;;;;;;;;;5065811;28;20093;-59
2022/05/10 10:02:37;;;;;;;0.90;0.90;;;;;;;;;;5065444;28;20032;-59
2022/05/10 10:05:18;;;;;;;0.90;0.90;;;;;;;;;;5069260;28;20028;-59
2022/05/10 10:07:54;;;;;;;1.00;1.00;;;;;;;;;;5069394;28;20037;-59
2022/05/10 10:10:24;;;;;;;0.90;0.90;;;;;;;;;;5070286;28;20032;-59
2022/05/10 10:12:51;;;;;;;1.02;0.93;;;;;;;;;;5069813;28;20409;-59
2022/05/10 10:15:20;;;;;;;1.55;0.90;;;;;;;;;;5069637;28;20094;-59
2022/05/10 10:17:51;;;;;;;1.20;1.10;;;;;;;;;;5069102;28;20400;-59
2022/05/10 10:20:20;;;;;;;0.73;0.73;;;;;;;;;;5068778;28;20025;-59
2022/05/10 10:22:48;;;;;;;0.90;0.90;;;;;;;;;;5069102;28;20060;-59
2022/05/10 10:25:19;;;;;;;1.00;0.90;;;;;;;;;;5069714;28;20070;-59
2022/05/10 10:27:51;;;;;;;1.25;1.15;;;;;;;;;;5069300;28;20231;-59
2022/05/10 10:30:27;;;;;;;1.05;1.00;;;;;;;;;;5069282;28;20064;-59
2022/05/10 10:33:15;;;;;;;1.30;1.20;;;;;;;;;;5069493;28;20028;-59
2022/05/10 10:35:50;;;;;;;1.30;1.20;;;;;;;;;;5053676;28;20037;-59
2022/05/10 10:38:35;;;;;;;0.70;0.70;;;;;;;;;;5048818;28;20037;-60
2022/05/10 10:41:12;;;;;;;0.80;0.80;;;;;;;;;;5061979;28;20040;-59
2022/05/10 10:43:51;;;;;;;0.88;0.88;;;;;;;;;;5068687;28;20055;-59
2022/05/10 10:46:17;;;;;;;0.90;0.90;;;;;;;;;;5069250;28;20025;-59
2022/05/10 10:48:53;;;;;;;0.88;0.88;;;;;;;;;;5066514;28;20448;-59
2022/05/10 10:51:21;;;;;;;1.30;1.20;;;;;;;;;;5066824;28;20038;-59
2022/05/10 10:53:47;;;;;;;1.60;1.50;;;;;;;;;;5067557;28;20049;-59
2022/05/10 10:56:21;;;;;;;1.55;1.45;;;;;;;;;;5069149;28;20025;-60
2022/05/10 10:59:23;;;;;;;1.80;1.70;;;;;;;;;;5068484;28;20096;-60
2022/05/10 11:01:58;;;;;;;1.25;1.15;;;;;;;;;;4994011;28;20034;-59
2022/05/10 11:04:59;;;;;;;1.48;1.38;;;;;;;;;;5059542;28;20048;-59
2022/05/10 11:07:35;;;;;;;1.40;1.30;;;;;;;;;;5026298;28;20066;-59
2022/05/10 11:10:07;;;;;;;1.05;1.02;;;;;;;;;;5061665;28;20113;-59
2022/05/10 11:12:39;;;;;;;1.30;1.20;;;;;;;;;;5066927;28;20024;-59
2022/05/10 11:15:05;;;;;;;1.30;1.20;;;;;;;;;;5066769;28;20498;-59
2022/05/10 11:17:34;;;;;;;1.40;1.30;;;;;;;;;;5067094;28;20075;-59
2022/05/10 11:20:21;;;;;;;1.17;1.08;;;;;;;;;;5067174;28;20392;-60
2022/05/10 11:22:59;;;;;;;1.13;1.02;;;;;;;;;;5066710;28;20066;-59
2022/05/10 11:25:25;;;;;;;;;;;;;;;;;;5068109;28;20029;-60
2022/05/10 11:27:50;;;;;;;;;;;;;;;;;;5067888;28;19912;-59
2022/05/10 11:30:16;;;;;;;;;;;;;;;;;;5067746;28;19908;-59
2022/05/10 11:32:42;;;;;;;;;;;;;;;;;;5067246;28;19908;-59
2022/05/10 11:35:08;;;;;;;;;;;;;;;;;;5067303;28;20401;-59
2022/05/10 11:37:35;;;;;;;;;;;;;;;;;;5067097;28;20026;-59
2022/05/10 11:40:02;;;;;;;;;;;;;;;;;;5067315;28;20337;-59
2022/05/10 11:42:32;;;;;;;;;;;;;;;;;;5082697;28;19946;-59
2022/05/10 11:45:07;;;;;;;0.80;0.80;;;;;;;;;;5067200;28;20531;-59
2022/05/10 11:47:33;;;;;;;1.58;1.33;;;;;;;;;;5066638;28;20289;-59
2022/05/10 11:50:12;;;;;;;1.55;1.45;;;;;;;;;;5066602;28;20487;-59
2022/05/10 11:52:45;;;;;;;1.35;1.25;;;;;;;;;;5066326;28;20089;-59
2022/05/10 11:55:16;;;;;;;0.90;0.90;;;;;;;;;;5066358;28;20035;-59
2022/05/10 11:57:43;;;;;;;1.77;1.35;;;;;;;;;;5066603;28;20035;-59
2022/05/10 12:00:28;;;;;;;1.58;1.48;;;;;;;;;;5066833;28;20025;-59
2022/05/10 12:02:55;;;;;;;1.30;1.20;;;;;;;;;;5067068;28;20034;-59
2022/05/10 12:05:27;;;;;;;1.27;1.02;;;;;;;;;;5063598;28;20025;-59
2022/05/10 12:07:54;;;;;;;1.83;1.10;;;;;;;;;;5063587;28;21004;-59
2022/05/10 12:10:23;;;;;;;0.90;0.90;;;;;;;;;;5066964;28;20465;-58
2022/05/10 12:12:52;;;;;;;2.35;0.80;;;;;;;;;;5055936;28;20044;-59
2022/05/10 12:21:21;;;;;;;1.30;1.20;;;;;;;;;;5067370;28;20060;-58
2022/05/10 12:24:05;;;;;;;0.90;0.90;;;;;;;;;;5066869;28;20024;-57
2022/05/10 12:26:55;;;;;;;0.90;0.90;;;;;;;;;;5081095;28;20029;-57
2022/05/10 12:29:31;;;;;;;1.10;1.00;;;;;;;;;;5040820;28;20408;-58
2022/05/10 12:32:03;;;;;;;1.40;1.20;;;;;;;;;;5062209;28;20044;-58
2022/05/10 12:34:42;;;;;;;0.93;0.93;;;;;;;;;;5062060;28;20032;-58
2022/05/10 12:37:28;;;;;;;0.88;0.88;;;;;;;;;;5062115;28;20032;-58
2022/05/10 12:40:14;;;;;;;0.80;0.80;;;;;;;;;;5062592;28;20780;-58
2022/05/10 12:42:59;;;;;;;0.63;0.63;;;;;;;;;;5061729;28;20127;-58
2022/05/10 12:45:45;;;;;;;0.88;0.68;;;;;;;;;;5047157;28;20448;-58
2022/05/10 12:48:29;;;;;;;0.70;0.70;;;;;;;;;;5046139;28;20029;-57
2022/05/10 12:50:55;;;;;;;;;;;;;;;;;;5047632;28;20044;-57
2022/05/10 12:53:22;;;;;;;0.60;0.60;;;;;;;;;;5045721;28;19915;-57
2022/05/10 12:55:48;;;;;;;1.00;0.98;;;;;;;;;;5046159;28;20029;-57
2022/05/10 12:58:21;;;;;;;0.80;0.80;;;;;;;;;;5046442;28;20017;-57
2022/05/10 13:00:53;;;;;;;1.27;1.13;;;;;;;;;;5046275;28;20032;-57
2022/05/10 13:03:29;;;;;;;1.33;1.10;;;;;;;;;;5046297;28;20552;-57
2022/05/10 13:06:14;;;;;;;0.90;0.90;;;;;;;;;;5077245;28;20493;-57
2022/05/10 13:08:43;;;;;;;1.20;1.10;;;;;;;;;;5081650;28;20029;-57
2022/05/10 13:11:09;;;;;;;0.80;0.80;;;;;;;;;;5066374;28;20035;-57
2022/05/10 13:13:37;;;;;;;2.08;1.30;;;;;;;;;;5081246;28;20032;-57
2022/05/10 13:16:04;;;;;;;1.00;0.95;;;;;;;;;;5066155;28;20020;-58
2022/05/10 13:18:30;;;;;;;0.90;0.90;;;;;;;;;;5065746;28;20852;-57
2022/05/10 13:20:58;;;;;;;0.80;0.80;;;;;;;;;;5081944;28;20020;-58
2022/05/10 13:23:33;;;;;;;0.80;0.80;;;;;;;;;;5066736;28;20028;-57
2022/05/10 13:26:09;;;;;;;2.15;0.80;;;;;;;;;;5066200;28;20023;-60
2022/05/10 13:28:48;;;;;;;0.82;0.82;;;;;;;;;;5065660;28;20037;-57
2022/05/10 13:31:20;;;;;;;1.15;1.05;;;;;;;;;;5081448;28;20767;-58
2022/05/10 13:33:46;;;;;;;;;;;;;;;;;;5046389;28;20449;-58
2022/05/10 13:36:12;;;;;;;;;;;;;;;;;;5060671;28;20321;-58
2022/05/10 13:38:38;;;;;;;;;;;;;;;;;;5065577;28;20317;-58
2022/05/10 13:41:04;;;;;;;;;;;;;;;;;;5066419;28;19954;-59
2022/05/10 13:43:31;;;;;;;;;;;;;;;;;;5064401;28;19912;-58
2022/05/10 13:45:57;;;;;;;;;;;;;;;;;;5066527;28;19908;-59
2022/05/10 13:48:23;;;;;;;;;;;;;;;;;;5057394;28;19912;-61
2022/05/10 13:50:51;;;;;;;;;;;;;;;;;;5046580;28;19904;-61
2022/05/10 13:53:18;;;;;;;;;;;;;;;;;;5046357;28;20539;-61
2022/05/10 13:55:44;;;;;;;;;;;;;;;;;;5046438;28;20260;-60
2022/05/10 13:58:13;;;;;;;;;;;;;;;;;;5046527;28;19909;-60
2022/05/10 14:00:39;;;;;;;;;;;;;;;;;;5057248;28;20413;-49
2022/05/10 14:03:06;;;;;;;;;;;;;;;;;;5064310;28;20006;-47
2022/05/10 14:05:33;;;;;;;;;;;;;;;;;;5066117;28;19908;-47
2022/05/10 14:07:59;;;;;;;;;;;;;;;;;;5066356;28;19915;-46
2022/05/10 14:10:25;;;;;;;;;;;;;;;;;;5064889;28;20374;-45
2022/05/10 14:12:52;;;;;;;;;;;;;;;;;;5065485;28;19905;-48
2022/05/10 14:15:20;;;;;;;;;;;;;;;;;;5064748;28;20393;-47
2022/05/10 14:17:47;;;;;;;;;;;;;;;;;;5065050;28;19919;-49
2022/05/10 14:20:20;;;;;;;;;;;;;;;;;;5065031;28;19908;-49
2022/05/10 14:22:46;;;;;;;;;;;;;;;;;;5064451;28;19967;-49
2022/05/10 14:25:14;;;;;;;;;;;;;;;;;;5064899;28;19932;-47
2022/05/10 14:27:41;;;;;;;;;;;;;;;;;;5064511;28;19961;-50
2022/05/10 14:30:08;;;;;;;;;;;;;;;;;;5065205;28;19915;-48
2022/05/10 14:32:36;;;;;;;;;;;;;;;;;;5064247;28;19904;-50
2022/05/10 14:35:03;;;;;;;;;;;;;;;;;;5065028;28;20404;-50
2022/05/10 14:37:29;;;;;;;;;;;;;;;;;;5064445;28;20315;-50
2022/05/10 14:39:56;;;;;;;;;;;;;;;;;;5065087;28;19916;-45
2022/05/10 14:42:24;;;;;;;;;;;;;;;;;;5064991;28;19943;-47
2022/05/10 14:44:50;;;;;;;;;;;;;;;;;;5064732;28;20286;-47
2022/05/10 14:47:16;;;;;;;;;;;;;;;;;;5064858;28;19995;-49
2022/05/10 14:49:42;;;;;;;;;;;;;;;;;;5065627;28;19930;-48
2022/05/10 14:52:08;;;;;;;;;;;;;;;;;;5068147;28;19916;-49
2022/05/10 14:54:34;;;;;;;;;;;;;;;;;;5067827;28;19919;-47
2022/05/10 14:57:00;;;;;;;;;;;;;;;;;;5067948;28;19919;-49
2022/05/10 15:02:11;;;;;;;;;;;;;;;;;;5068060;28;19922;-46
2022/05/10 15:04:38;;;;;;;;;;;;;;;;;;5067731;28;20414;-48
2022/05/10 15:07:05;;;;;;;;;;;;;;;;;;5068156;28;20375;-47
2022/05/10 15:09:31;;;;;;;;;;;;;;;;;;5067711;28;19909;-46
2022/05/10 15:14:42;;;;;;;;;;;;;;;;;;5067602;28;19916;-48
2022/05/10 15:17:08;;;;;;;;;;;;;;;;;;5068014;28;20069;-46
2022/05/10 15:19:35;;;;;;;;;;;;;;;;;;5067812;28;20442;-45
2022/05/10 15:22:01;;;;;;;;;;;;;;;;;;5068028;28;20359;-46
2022/05/10 15:24:28;;;;;;;;;;;;;;;;;;5067393;28;19935;-46
2022/05/10 15:26:57;;;;;;;;;;;;;;;;;;5068410;28;19904;-46
2022/05/10 15:29:23;;;;;;;;;;;;;;;;;;5068268;28;20003;-50
2022/05/10 15:31:49;;;;;;;;;;;;;;;;;;5067006;28;20001;-48
2022/05/10 15:36:59;;;;;;;;;;;;;;;;;;5067397;28;19931;-50
2022/05/10 15:39:25;;;;;;;;;;;;;;;;;;5067525;28;20374;-45
2022/05/10 15:41:52;;;;;;;;;;;;;;;;;;5067771;28;19904;-48
2022/05/10 15:44:18;;;;;;;;;;;;;;;;;;5067328;28;20383;-47
2022/05/10 15:46:45;;;;;;;;;;;;;;;;;;5067253;28;19947;-47
2022/05/10 15:49:11;;;;;;;;;;;;;;;;;;5067325;28;19915;-48
2022/05/10 15:51:41;;;;;;;;;;;;;;;;;;5066847;28;19900;-46
2022/05/10 15:54:07;;;;;;;;;;;;;;;;;;5067098;28;20295;-46
2022/05/10 15:56:33;;;;;;;;;;;;;;;;;;5066692;28;19908;-47
2022/05/10 15:58:59;;;;;;;;;;;;;;;;;;5067091;28;19904;-49
2022/05/10 16:01:26;;;;;;;;;;;;;;;;;;5066913;28;19913;-47
2022/05/10 16:03:52;;;;;;;;;;;;;;;;;;5067693;28;20050;-46
2022/05/10 16:06:19;;;;;;;;;;;;;;;;;;5066953;28;20356;-45
2022/05/10 16:08:45;;;;;;;1.10;1.10;;;;;;;;;;5065122;28;20792;-45
2022/05/10 16:11:12;;;;;;;1.30;1.20;;;;;;;;;;5066057;28;20396;-45
2022/05/10 16:13:37;;;;;;;1.15;1.05;;;;;;;;;;5066087;28;20037;-46
2022/05/10 16:16:04;;;;;;;1.75;1.38;;;;;;;;;;5066147;28;20514;-45
2022/05/10 16:18:31;;;;;;;1.05;1.05;;;;;;;;;;5066056;28;20398;-47
2022/05/10 16:20:58;;;;;;;1.52;1.40;;;;;;;;;;5066520;28;20025;-45
2022/05/10 16:23:25;;;;;;;1.10;1.10;;;;;;;;;;5066454;28;20039;-47
2022/05/10 16:25:51;;;;;;;1.10;1.10;;;;;;;;;;5066542;28;20032;-46
2022/05/10 16:31:05;;;;;;;1.23;1.13;;;;;;;;;;5066076;28;20119;-45
2022/05/10 16:33:33;;;;;;;1.40;1.30;;;;;;;;;;5065695;28;20036;-45
2022/05/10 16:36:00;;;;;;;1.38;1.27;;;;;;;;;;5065879;28;20024;-45
2022/05/10 16:38:26;;;;;;;1.33;1.23;;;;;;;;;;5065587;28;20455;-45
2022/05/10 16:40:52;;;;;;;1.20;1.10;;;;;;;;;;5066349;28;20406;-45
2022/05/10 16:43:19;;;;;;;1.13;1.02;;;;;;;;;;5065402;28;20078;-44
2022/05/10 16:45:48;;;;;;;1.40;1.30;;;;;;;;;;5065425;28;20427;-45